KAIO

Atlantic Municipal Airport

Atlantic, Iowa, USA
METAR KAIO 170555Z AUTO 04009KT 10SM FEW044 00/M02 A2998 RMK AO2
Observed Flight Rules
Dec-17 @ 05:55 UTC (25 minutes ago) Visual Flight Rules
Wind Visibility Clouds
40° at 9 knots 10 miles
  • Few at 4,400' AGL
Temperatures Readings
Current 0°C / 32°F
Dewpoint -2°C / 28°F
Humidity 87%
Altimeter 29.98" Hg
Pressure 1015 hPa
Elevation 360
METAR KAIO 170555Z AUTO 04009KT 10SM FEW044 00/M02 A2998 RMK AO2
Observed Flight Rules
Dec-17 @ 05:55 UTC
(25 minutes ago)
VFR
Wind Visibility
40° at 9 knots 10 miles
Clouds
  • Few at 4,400' AGL
Temperature Dewpoint
0°C / 32°F -2°C / 28°F
Humidity Altimeter Pressure
87% 29.98" Hg 1015 hPa